Time;durP1;ratioP1;P1;durP2;ratioP2;P2;SDS_P1;SDS_P2;PMS_P1;PMS_P2;Temp;Humidity;BMP_temperature;BMP_pressure;BME280_temperature;BME280_humidity;BME280_pressure;Samples;Min_cycle;Max_cycle;Signal;HPM_P1;HPM_P2
2023/12/27 00:01:39;;;;;;;5.37;3.80;;;;;;;4.67;100.00;100726.13;5063458;28;20235;-73
2023/12/27 00:04:04;;;;;;;8.97;4.13;;;;;;;4.73;100.00;100722.63;5076323;28;20173;-74
2023/12/27 00:06:29;;;;;;;9.27;4.27;;;;;;;4.83;100.00;100733.47;5070730;28;20185;-73
2023/12/27 00:08:55;;;;;;;5.63;3.97;;;;;;;4.77;100.00;100725.97;5073428;28;20188;-73
2023/12/27 00:11:20;;;;;;;7.70;3.80;;;;;;;4.85;100.00;100727.47;5070416;28;20231;-71
2023/12/27 00:13:45;;;;;;;11.87;4.67;;;;;;;4.91;100.00;100726.53;5071207;28;20191;-73
2023/12/27 00:16:11;;;;;;;8.60;4.47;;;;;;;4.85;100.00;100719.84;5068895;28;20189;-72
2023/12/27 00:18:36;;;;;;;7.20;4.10;;;;;;;4.93;100.00;100721.38;5070210;28;20173;-71
2023/12/27 00:21:01;;;;;;;9.07;4.03;;;;;;;5.02;100.00;100723.72;5066022;28;20290;-77
2023/12/27 00:23:29;;;;;;;6.27;4.27;;;;;;;4.89;100.00;100729.94;5058495;28;20191;-76
2023/12/27 00:25:56;;;;;;;5.73;3.63;;;;;;;5.04;100.00;100732.19;5061192;28;20189;-74
2023/12/27 00:28:22;;;;;;;7.57;4.10;;;;;;;5.10;100.00;100741.44;5058365;28;20180;-74
2023/12/27 00:30:51;;;;;;;6.50;4.27;;;;;;;5.06;100.00;100737.25;5025349;28;20228;-74
2023/12/27 00:33:17;;;;;;;7.93;4.03;;;;;;;5.16;100.00;100739.59;5056751;28;20329;-74
2023/12/27 00:35:42;;;;;;;7.00;3.93;;;;;;;5.21;100.00;100736.94;5071208;28;20628;-75
2023/12/27 00:38:07;;;;;;;11.43;4.47;;;;;;;5.23;100.00;100731.78;5071833;28;20223;-74
2023/12/27 00:40:33;;;;;;;5.53;3.73;;;;;;;5.27;100.00;100730.84;5063489;28;20236;-74
2023/12/27 00:42:58;;;;;;;5.53;4.33;;;;;;;5.33;100.00;100716.25;5052409;28;20181;-75
2023/12/27 00:45:23;;;;;;;8.13;3.90;;;;;;;5.25;100.00;100713.03;5060757;28;20618;-76
2023/12/27 00:47:48;;;;;;;5.80;4.00;;;;;;;5.21;100.00;100719.09;5070703;28;20188;-74
2023/12/27 00:50:14;;;;;;;4.40;3.70;;;;;;;5.24;100.00;100719.00;5056524;28;20184;-74
2023/12/27 00:52:39;;;;;;;6.97;4.33;;;;;;;5.09;100.00;100722.72;5068164;28;20189;-73
2023/12/27 00:55:05;;;;;;;6.97;4.00;;;;;;;5.22;100.00;100727.56;5065934;28;20189;-73
2023/12/27 00:57:30;;;;;;;7.97;3.80;;;;;;;5.32;100.00;100718.81;5068558;28;20207;-73
2023/12/27 00:59:55;;;;;;;8.97;4.00;;;;;;;5.31;100.00;100710.34;5065101;28;20196;-73
2023/12/27 01:02:21;;;;;;;8.30;3.63;;;;;;;5.34;100.00;100706.88;5058736;28;20235;-73
2023/12/27 01:04:46;;;;;;;6.60;4.00;;;;;;;5.39;100.00;100709.31;5050302;28;20186;-73
2023/12/27 01:07:11;;;;;;;8.37;3.60;;;;;;;5.36;100.00;100709.38;5063973;28;20317;-73
2023/12/27 01:09:36;;;;;;;8.40;3.83;;;;;;;5.33;100.00;100725.59;5064477;28;20632;-73
2023/12/27 01:12:02;;;;;;;9.00;3.50;;;;;;;5.30;100.00;100728.25;5061320;28;20223;-73
2023/12/27 01:14:27;;;;;;;6.83;2.87;;;;;;;5.16;100.00;100719.19;5064734;28;20594;-73
2023/12/27 01:16:52;;;;;;;8.87;3.60;;;;;;;5.08;100.00;100723.59;5067808;28;20641;-73
2023/12/27 01:19:17;;;;;;;8.23;3.70;;;;;;;4.99;100.00;100721.25;5065111;28;20194;-73
2023/12/27 01:21:43;;;;;;;6.37;3.37;;;;;;;4.94;100.00;100725.63;5072223;28;20285;-73
2023/12/27 01:24:08;;;;;;;9.27;3.70;;;;;;;4.81;100.00;100728.44;5066739;28;20620;-73
2023/12/27 01:26:33;;;;;;;7.43;4.20;;;;;;;4.72;100.00;100720.13;5051768;28;20220;-73
2023/12/27 01:28:58;;;;;;;10.37;4.10;;;;;;;4.66;100.00;100729.56;5052315;28;20243;-73
2023/12/27 01:31:24;;;;;;;14.70;5.63;;;;;;;4.73;100.00;100743.03;5044320;28;20234;-72
2023/12/27 01:33:50;;;;;;;12.33;4.63;;;;;;;4.71;100.00;100743.94;5051963;28;20620;-72
2023/12/27 01:36:18;;;;;;;6.90;4.20;;;;;;;4.71;100.00;100737.09;5053366;28;20177;-72
2023/12/27 01:38:44;;;;;;;9.20;4.27;;;;;;;4.49;100.00;100739.22;5047852;28;20278;-73
2023/12/27 01:41:09;;;;;;;10.80;5.50;;;;;;;4.45;100.00;100733.38;5055383;28;20793;-75
2023/12/27 01:43:34;;;;;;;12.27;4.97;;;;;;;4.30;100.00;100744.66;5059759;28;20184;-72
2023/12/27 01:45:59;;;;;;;8.00;4.43;;;;;;;4.59;100.00;100750.94;5049773;28;20209;-72
2023/12/27 01:48:25;;;;;;;11.27;4.70;;;;;;;4.68;100.00;100753.31;5047986;28;20209;-72
2023/12/27 01:50:53;;;;;;;8.50;4.40;;;;;;;4.86;100.00;100748.69;5048867;28;20684;-73
2023/12/27 01:53:20;;;;;;;6.87;4.57;;;;;;;4.84;100.00;100758.09;5051258;28;20185;-74
2023/12/27 01:55:48;;;;;;;7.33;4.43;;;;;;;4.91;100.00;100756.25;5053509;28;20295;-74
2023/12/27 01:58:15;;;;;;;10.57;5.10;;;;;;;5.06;100.00;100753.41;5052474;28;20188;-74
2023/12/27 02:00:42;;;;;;;10.03;4.70;;;;;;;5.15;100.00;100750.66;5047015;28;20306;-74
2023/12/27 02:03:08;;;;;;;9.13;5.30;;;;;;;5.12;100.00;100743.09;5051096;28;20170;-74
2023/12/27 02:05:34;;;;;;;11.93;4.70;;;;;;;5.13;100.00;100734.53;5051406;28;20575;-73
2023/12/27 02:08:00;;;;;;;15.30;6.10;;;;;;;5.26;100.00;100741.91;5051994;28;20208;-73
2023/12/27 02:10:26;;;;;;;8.57;5.37;;;;;;;5.33;100.00;100748.56;5044129;28;20322;-73
2023/12/27 02:12:51;;;;;;;8.70;4.53;;;;;;;5.41;100.00;100741.59;5064751;28;20204;-74
2023/12/27 02:15:16;;;;;;;5.80;4.33;;;;;;;5.45;100.00;100743.19;5052483;28;20181;-74
2023/12/27 02:17:43;;;;;;;10.50;4.70;;;;;;;5.46;100.00;100732.09;5050829;28;20181;-73
2023/12/27 02:20:09;;;;;;;9.40;4.77;;;;;;;5.45;100.00;100721.94;5043344;28;20258;-73
2023/12/27 02:22:35;;;;;;;11.27;6.50;;;;;;;5.63;100.00;100729.16;5066910;28;20177;-73
2023/12/27 02:25:00;;;;;;;9.30;5.47;;;;;;;5.60;100.00;100730.94;5053246;28;20174;-74
2023/12/27 02:27:26;;;;;;;9.70;5.10;;;;;;;5.56;100.00;100730.19;5050286;28;20178;-72
2023/12/27 02:29:51;;;;;;;7.27;5.13;;;;;;;5.53;100.00;100729.41;5050863;28;20189;-72
2023/12/27 02:32:16;;;;;;;7.83;4.43;;;;;;;5.54;100.00;100726.81;5056955;28;20221;-73
2023/12/27 02:34:41;;;;;;;7.30;4.90;;;;;;;5.33;100.00;100730.69;5051458;28;20272;-73
2023/12/27 02:37:07;;;;;;;12.27;5.30;;;;;;;5.35;100.00;100731.53;5051444;28;20188;-73
2023/12/27 02:39:32;;;;;;;10.10;4.60;;;;;;;5.55;100.00;100720.03;5066979;28;20602;-73
2023/12/27 02:41:57;;;;;;;10.17;4.70;;;;;;;5.39;100.00;100722.09;5063095;28;20698;-73
2023/12/27 02:44:26;;;;;;;9.40;4.07;;;;;;;5.46;100.00;100703.22;5052464;28;20205;-72
2023/12/27 02:46:55;;;;;;;9.13;3.97;;;;;;;5.41;100.00;100702.47;5050023;28;20385;-73
2023/12/27 02:49:21;;;;;;;9.63;3.93;;;;;;;5.59;100.00;100698.63;5051826;28;20580;-72
2023/12/27 02:51:47;;;;;;;13.03;4.63;;;;;;;5.63;100.00;100703.66;5054635;28;20220;-73
2023/12/27 02:54:12;;;;;;;12.40;4.07;;;;;;;5.63;100.00;100692.56;5054032;28;20182;-72
2023/12/27 02:56:37;;;;;;;7.23;3.73;;;;;;;5.52;100.00;100690.31;5051029;28;20185;-72
2023/12/27 02:59:02;;;;;;;8.37;4.00;;;;;;;5.49;100.00;100688.66;5051813;28;20660;-72
2023/12/27 03:01:28;;;;;;;8.10;4.47;;;;;;;5.55;100.00;100695.31;5052563;28;20231;-72
2023/12/27 03:03:53;;;;;;;7.67;4.40;;;;;;;5.47;100.00;100692.09;5050452;28;20556;-72
2023/12/27 03:06:18;;;;;;;7.10;4.77;;;;;;;5.54;100.00;100693.63;5051327;28;20187;-74
2023/12/27 03:08:43;;;;;;;6.37;4.70;;;;;;;5.44;100.00;100680.25;5051516;28;20581;-73
2023/12/27 03:11:09;;;;;;;8.23;4.10;;;;;;;5.49;100.00;100681.00;5050184;28;20717;-73
2023/12/27 03:13:34;;;;;;;10.30;4.77;;;;;;;5.35;100.00;100672.84;5058366;28;20173;-73
2023/12/27 03:16:09;;;;;;;6.73;4.27;;;;;;;5.10;100.00;100670.03;5050524;28;20208;-73
2023/12/27 03:18:35;;;;;;;7.70;3.80;;;;;;;5.11;100.00;100676.78;5052061;28;20185;-73
2023/12/27 03:21:00;;;;;;;12.57;4.40;;;;;;;5.16;100.00;100668.16;5049101;28;20236;-73
2023/12/27 03:23:27;;;;;;;7.90;4.20;;;;;;;5.21;100.00;100669.75;5059761;28;20251;-73
2023/12/27 03:25:53;;;;;;;9.83;4.30;;;;;;;5.26;100.00;100663.69;5050899;28;20186;-74
2023/12/27 03:28:19;;;;;;;6.97;4.33;;;;;;;5.15;100.00;100661.38;5050969;28;20173;-72
2023/12/27 03:30:44;;;;;;;7.90;4.30;;;;;;;5.14;100.00;100659.69;5047313;28;20231;-74
2023/12/27 03:33:09;;;;;;;11.70;4.57;;;;;;;5.20;100.00;100662.97;5055656;28;20245;-74
2023/12/27 03:35:35;;;;;;;11.47;4.17;;;;;;;5.30;100.00;100659.38;5071086;28;20185;-73
2023/12/27 03:38:00;;;;;;;11.37;4.43;;;;;;;5.20;100.00;100663.84;5069796;28;20169;-73
2023/12/27 03:40:25;;;;;;;8.53;3.90;;;;;;;5.24;100.00;100662.06;5061884;28;20668;-73
2023/12/27 03:42:51;;;;;;;7.23;4.47;;;;;;;5.35;100.00;100662.63;5067778;28;20177;-72
2023/12/27 03:45:18;;;;;;;9.63;4.90;;;;;;;5.31;100.00;100666.97;5070443;28;20224;-74
2023/12/27 03:47:44;;;;;;;9.73;4.67;;;;;;;5.31;100.00;100664.41;5069169;28;20184;-74
2023/12/27 03:50:10;;;;;;;7.77;4.43;;;;;;;5.36;100.00;100666.00;5061482;28;20180;-73
2023/12/27 03:52:36;;;;;;;14.60;4.50;;;;;;;5.39;100.00;100666.78;5084910;28;20651;-73
2023/12/27 03:55:01;;;;;;;10.70;4.97;;;;;;;5.11;100.00;100662.34;5070985;28;20200;-72
2023/12/27 03:57:26;;;;;;;8.90;4.10;;;;;;;5.21;100.00;100662.97;5068043;28;20196;-73
2023/12/27 03:59:51;;;;;;;12.60;4.90;;;;;;;5.22;100.00;100658.69;5070661;28;20199;-73
2023/12/27 04:02:16;;;;;;;5.40;4.00;;;;;;;5.29;100.00;100657.69;5060116;28;20244;-72
2023/12/27 04:04:42;;;;;;;7.37;4.30;;;;;;;5.31;100.00;100653.38;5071203;28;20181;-72
2023/12/27 04:07:07;;;;;;;9.17;4.47;;;;;;;5.39;100.00;100650.66;5069631;28;20165;-72
2023/12/27 04:09:32;;;;;;;9.03;4.27;;;;;;;5.50;100.00;100651.22;5070174;28;20216;-72
2023/12/27 04:11:57;;;;;;;10.80;4.03;;;;;;;5.60;100.00;100651.84;5064195;28;20277;-72
2023/12/27 04:14:23;;;;;;;9.17;4.10;;;;;;;5.60;100.00;100650.09;5074608;28;20184;-73
2023/12/27 04:16:48;;;;;;;10.47;5.20;;;;;;;5.59;100.00;100655.25;5072495;28;20231;-73
2023/12/27 04:19:13;;;;;;;9.23;4.87;;;;;;;5.66;100.00;100647.41;5073717;28;20200;-72
2023/12/27 04:21:41;;;;;;;6.83;3.80;;;;;;;5.75;100.00;100648.06;5075111;28;20258;-72
2023/12/27 04:24:08;;;;;;;8.53;4.53;;;;;;;5.74;100.00;100644.69;5076261;28;20193;-72
2023/12/27 04:26:37;;;;;;;12.60;4.90;;;;;;;5.68;100.00;100646.53;5071431;28;20183;-73
2023/12/27 04:29:02;;;;;;;7.90;3.93;;;;;;;5.50;100.00;100648.66;5072720;28;20292;-74
2023/12/27 04:31:27;;;;;;;9.00;4.60;;;;;;;5.56;100.00;100665.56;5046128;27;21096;-73
2023/12/27 04:33:52;;;;;;;7.57;4.10;;;;;;;5.47;100.00;100661.50;5056550;28;20192;-73
2023/12/27 04:36:18;;;;;;;7.00;4.20;;;;;;;5.69;100.00;100664.34;5053885;28;20182;-72
2023/12/27 04:38:43;;;;;;;7.80;4.17;;;;;;;5.78;100.00;100664.13;5054090;28;20185;-73
2023/12/27 04:41:08;;;;;;;9.03;5.07;;;;;;;5.62;100.00;100658.56;5052374;28;20277;-73
2023/12/27 04:43:37;;;;;;;10.73;4.83;;;;;;;5.50;100.00;100653.78;5060796;28;20235;-74
2023/12/27 04:46:09;;;;;;;9.03;4.60;;;;;;;5.70;100.00;100655.81;5053959;28;20276;-73
2023/12/27 04:48:34;;;;;;;9.50;5.10;;;;;;;5.85;100.00;100656.31;5052423;28;20545;-73
2023/12/27 04:50:59;;;;;;;5.17;3.93;;;;;;;5.82;100.00;100658.06;5064913;28;20219;-74
2023/12/27 04:53:25;;;;;;;11.57;5.37;;;;;;;5.95;100.00;100662.84;5081882;28;20635;-73
2023/12/27 04:55:50;;;;;;;9.13;4.33;;;;;;;6.09;100.00;100655.69;5072960;28;20177;-73
2023/12/27 04:58:15;;;;;;;8.43;5.10;;;;;;;5.95;100.00;100655.19;5072796;28;20187;-72
2023/12/27 05:00:41;;;;;;;7.60;4.50;;;;;;;6.04;100.00;100654.13;5067510;28;20232;-73
2023/12/27 05:03:07;;;;;;;11.90;5.13;;;;;;;5.89;100.00;100651.09;5084192;28;20230;-73
2023/12/27 05:05:33;;;;;;;8.53;4.73;;;;;;;5.92;100.00;100647.63;5059502;28;20177;-71
2023/12/27 05:07:58;;;;;;;11.43;4.90;;;;;;;5.95;100.00;100627.94;5072626;28;20177;-72
2023/12/27 05:10:23;;;;;;;7.63;3.97;;;;;;;5.96;100.00;100639.00;5064127;28;20590;-73
2023/12/27 05:12:48;;;;;;;10.70;5.20;;;;;;;5.92;100.00;100632.31;5085804;28;20209;-74
2023/12/27 05:15:14;;;;;;;9.07;4.50;;;;;;;5.93;100.00;100637.34;5071671;28;20188;-73
2023/12/27 05:17:39;;;;;;;7.30;4.93;;;;;;;6.01;100.00;100641.47;5072292;28;20238;-73
2023/12/27 05:20:05;;;;;;;11.67;4.37;;;;;;;6.09;100.00;100636.97;5060105;28;20228;-74
2023/12/27 05:22:33;;;;;;;9.20;4.63;;;;;;;6.18;100.00;100630.75;5087145;28;20192;-73
2023/12/27 05:25:00;;;;;;;11.87;5.10;;;;;;;6.04;100.00;100629.44;5071663;28;20204;-74
2023/12/27 05:27:25;;;;;;;8.27;4.90;;;;;;;6.20;100.00;100629.88;5072302;28;20180;-74
2023/12/27 05:29:50;;;;;;;7.80;5.47;;;;;;;6.20;100.00;100629.88;5072883;28;20250;-74
2023/12/27 05:32:16;;;;;;;8.43;4.87;;;;;;;6.13;100.00;100629.19;5065778;28;20228;-74
2023/12/27 05:34:42;;;;;;;9.37;5.70;;;;;;;6.21;100.00;100613.63;5069890;28;20187;-74
2023/12/27 05:37:08;;;;;;;7.23;5.20;;;;;;;6.08;100.00;100627.66;5070846;28;20181;-74
2023/12/27 05:39:34;;;;;;;7.63;5.30;;;;;;;6.13;100.00;100624.06;5072311;28;20188;-74
2023/12/27 05:41:59;;;;;;;8.90;5.43;;;;;;;6.11;100.00;100617.34;5077121;28;20577;-74
2023/12/27 05:44:24;;;;;;;8.70;5.60;;;;;;;6.10;100.00;100618.22;5070706;28;20230;-74
2023/12/27 05:46:49;;;;;;;8.90;6.07;;;;;;;6.25;100.00;100616.94;5072299;28;20193;-74
2023/12/27 05:49:14;;;;;;;11.17;7.30;;;;;;;6.29;100.00;100614.25;5071653;28;20181;-74
2023/12/27 05:51:40;;;;;;;10.60;7.30;;;;;;;6.28;100.00;100615.13;5063244;28;20220;-74
2023/12/27 05:54:05;;;;;;;13.00;8.17;;;;;;;6.27;100.00;100605.78;5075059;28;20548;-74
2023/12/27 05:56:30;;;;;;;10.50;7.70;;;;;;;6.27;100.00;100604.97;5071757;28;20270;-74
2023/12/27 05:58:56;;;;;;;14.93;8.80;;;;;;;6.24;100.00;100616.13;5071797;28;20207;-72
2023/12/27 06:01:21;;;;;;;16.80;8.97;;;;;;;6.23;100.00;100611.88;5058834;28;20232;-73
2023/12/27 06:03:46;;;;;;;13.13;9.10;;;;;;;6.12;100.00;100622.41;5058229;28;20170;-73
2023/12/27 06:06:12;;;;;;;13.40;9.50;;;;;;;6.23;100.00;100623.84;5063365;28;20192;-73
2023/12/27 06:08:37;;;;;;;10.60;8.37;;;;;;;6.44;100.00;100632.59;5072195;28;20188;-73
2023/12/27 06:11:03;;;;;;;12.63;9.00;;;;;;;6.54;100.00;100636.56;5057223;28;20687;-72
2023/12/27 06:13:28;;;;;;;11.40;9.17;;;;;;;6.67;100.00;100643.88;5064604;28;20177;-73
2023/12/27 06:15:57;;;;;;;9.73;6.97;;;;;;;6.69;100.00;100640.38;5061688;28;20224;-75
2023/12/27 06:18:22;;;;;;;12.47;9.67;;;;;;;6.68;100.00;100635.31;5050969;28;20262;-72
2023/12/27 06:20:48;;;;;;;13.73;9.67;;;;;;;6.70;100.00;100629.28;5048192;28;20659;-73
2023/12/27 06:23:13;;;;;;;12.87;10.00;;;;;;;6.80;100.00;100629.84;5062268;28;20180;-72
2023/12/27 06:25:38;;;;;;;13.23;9.27;;;;;;;6.82;100.00;100624.66;5051995;28;20223;-72
2023/12/27 06:28:04;;;;;;;14.83;9.73;;;;;;;6.65;100.00;100615.81;5052184;28;20685;-72
2023/12/27 06:30:29;;;;;;;14.57;10.37;;;;;;;6.38;100.00;100617.44;5045641;28;20236;-72
2023/12/27 06:32:55;;;;;;;14.63;11.33;;;;;;;6.56;100.00;100624.59;5067289;28;20222;-73
2023/12/27 06:35:20;;;;;;;15.33;11.00;;;;;;;6.62;100.00;100616.72;5071220;28;20181;-73
2023/12/27 06:37:45;;;;;;;16.80;12.13;;;;;;;6.41;100.00;100610.53;5070819;28;20205;-73
2023/12/27 06:40:11;;;;;;;21.53;11.47;;;;;;;6.43;100.00;100606.19;5062213;28;20657;-75
2023/12/27 06:42:36;;;;;;;19.03;12.57;;;;;;;6.46;100.00;100608.69;5083518;28;20181;-73
2023/12/27 06:45:01;;;;;;;16.10;12.87;;;;;;;6.42;100.00;100608.81;5069788;28;20227;-73
2023/12/27 06:47:26;;;;;;;18.97;13.60;;;;;;;6.56;100.00;100606.69;5069061;28;20169;-73
2023/12/27 06:49:53;;;;;;;18.90;13.90;;;;;;;6.43;100.00;100618.16;5071262;28;20366;-73
2023/12/27 06:52:18;;;;;;;22.10;14.30;;;;;;;6.51;100.00;100618.78;5075217;28;20238;-73
2023/12/27 06:54:44;;;;;;;24.83;15.07;;;;;;;6.49;100.00;100633.31;5069477;28;20607;-72
2023/12/27 06:57:09;;;;;;;23.17;14.70;;;;;;;6.55;100.00;100635.69;5069023;28;20549;-75
2023/12/27 06:59:35;;;;;;;21.63;15.03;;;;;;;6.60;100.00;100635.56;5070936;28;20192;-72
2023/12/27 07:02:00;;;;;;;20.27;14.50;;;;;;;6.50;100.00;100634.97;5075483;28;20242;-72
2023/12/27 07:04:25;;;;;;;19.50;14.27;;;;;;;6.41;100.00;100620.75;5071801;28;20189;-73
2023/12/27 07:06:50;;;;;;;22.40;16.13;;;;;;;6.41;100.00;100625.00;5070747;28;20176;-73
2023/12/27 07:09:17;;;;;;;25.70;16.00;;;;;;;6.38;100.00;100625.94;5070970;28;20210;-73
2023/12/27 07:11:42;;;;;;;24.13;15.33;;;;;;;6.37;100.00;100629.38;5073484;28;20215;-74
2023/12/27 07:14:08;;;;;;;22.00;14.83;;;;;;;6.39;100.00;100624.25;5074270;28;20241;-74
2023/12/27 07:16:33;;;;;;;17.67;13.73;;;;;;;6.41;100.00;100622.47;5070559;28;20177;-73
2023/12/27 07:18:59;;;;;;;16.70;13.53;;;;;;;6.33;100.00;100626.97;5071498;28;20177;-74
2023/12/27 07:21:24;;;;;;;19.83;15.37;;;;;;;6.18;100.00;100630.75;5053761;28;20314;-73
2023/12/27 07:23:49;;;;;;;19.27;14.47;;;;;;;6.19;100.00;100643.50;5057409;28;20624;-73
2023/12/27 07:26:14;;;;;;;21.17;14.77;;;;;;;6.16;100.00;100640.19;5054552;28;20217;-72
2023/12/27 07:28:40;;;;;;;25.53;15.60;;;;;;;6.43;100.00;100633.47;5069313;28;20173;-73
2023/12/27 07:31:06;;;;;;;20.23;13.70;;;;;;;6.33;100.00;100635.47;5059275;28;20224;-72
2023/12/27 07:33:34;;;;;;;18.00;13.53;;;;;;;6.37;100.00;100628.53;5067562;28;20224;-74
2023/12/27 07:36:00;;;;;;;15.17;12.30;;;;;;;6.33;100.00;100626.97;5069415;28;20173;-73
2023/12/27 07:38:26;;;;;;;14.60;12.23;;;;;;;6.54;100.00;100628.06;5068947;28;20196;-74
2023/12/27 07:40:51;;;;;;;17.17;13.13;;;;;;;6.71;100.00;100630.09;5064693;28;20228;-74
2023/12/27 07:43:17;;;;;;;12.67;11.10;;;;;;;6.61;100.00;100622.72;5078523;28;20200;-74
2023/12/27 07:45:44;;;;;;;14.73;11.47;;;;;;;6.69;100.00;100609.69;5070936;28;20250;-74
2023/12/27 07:48:09;;;;;;;17.87;12.47;;;;;;;6.63;100.00;100609.88;5073831;28;20218;-74
2023/12/27 07:50:36;;;;;;;13.10;11.73;;;;;;;6.72;100.00;100608.78;5067762;28;20208;-75
2023/12/27 07:53:01;;;;;;;13.47;10.77;;;;;;;6.51;100.00;100590.66;5080551;28;20227;-75
2023/12/27 07:55:27;;;;;;;15.00;11.03;;;;;;;6.46;100.00;100582.25;5060728;28;20663;-75
2023/12/27 07:57:53;;;;;;;13.13;11.00;;;;;;;6.44;100.00;100591.72;5059550;28;20173;-72
2023/12/27 08:00:19;;;;;;;15.03;11.90;;;;;;;6.46;100.00;100589.94;5044087;28;20215;-72
2023/12/27 08:02:45;;;;;;;15.07;11.67;;;;;;;6.39;100.00;100580.81;5031745;28;20694;-73
2023/12/27 08:05:10;;;;;;;13.73;11.70;;;;;;;6.52;100.00;100579.53;5060376;28;20200;-74
2023/12/27 08:07:35;;;;;;;16.00;11.93;;;;;;;6.69;100.00;100576.47;5053764;28;20174;-72
2023/12/27 08:10:01;;;;;;;15.90;11.83;;;;;;;6.63;100.00;100574.09;5055838;28;20204;-73
2023/12/27 08:12:27;;;;;;;17.27;12.53;;;;;;;6.79;100.00;100579.56;5043897;28;20237;-73
2023/12/27 08:14:52;;;;;;;14.13;12.13;;;;;;;6.62;100.00;100568.16;5054836;28;20188;-74
2023/12/27 08:17:17;;;;;;;15.30;12.13;;;;;;;6.65;100.00;100569.78;5054118;28;20192;-73
2023/12/27 08:19:43;;;;;;;15.67;11.73;;;;;;;6.85;100.00;100581.13;5053141;28;20319;-73
2023/12/27 08:22:08;;;;;;;13.50;11.53;;;;;;;6.99;100.00;100567.88;5045502;28;20569;-75
2023/12/27 08:24:33;;;;;;;18.97;11.73;;;;;;;7.07;100.00;100556.53;5055160;28;20181;-74
2023/12/27 08:26:59;;;;;;;15.67;11.83;;;;;;;7.07;100.00;100545.44;5057742;28;20629;-72
2023/12/27 08:29:24;;;;;;;15.23;11.13;;;;;;;7.05;100.00;100535.25;5068249;28;20620;-73
2023/12/27 08:31:50;;;;;;;18.77;11.90;;;;;;;6.97;100.00;100547.47;5032027;28;20363;-71
2023/12/27 08:34:15;;;;;;;12.50;10.90;;;;;;;6.77;100.00;100546.41;5065120;28;20177;-74
2023/12/27 08:36:45;;;;;;;11.70;9.80;;;;;;;6.84;100.00;100552.13;5071974;28;20588;-75
2023/12/27 08:39:10;;;;;;;12.50;10.43;;;;;;;7.04;100.00;100554.03;5072065;28;20593;-75
2023/12/27 08:41:36;;;;;;;10.20;9.13;;;;;;;6.90;100.00;100566.47;5074277;27;20303;-75
2023/12/27 08:44:01;;;;;;;11.17;9.20;;;;;;;6.87;100.00;100569.09;5075038;28;20276;-74
2023/12/27 08:46:26;;;;;;;11.53;9.73;;;;;;;7.06;100.00;100566.81;5066593;28;20204;-74
2023/12/27 08:48:51;;;;;;;13.53;10.83;;;;;;;7.05;100.00;100567.69;5054051;28;20212;-74
2023/12/27 08:51:17;;;;;;;12.97;9.97;;;;;;;7.27;100.00;100566.09;5044798;28;20262;-75
2023/12/27 08:53:42;;;;;;;13.93;10.60;;;;;;;7.11;100.00;100570.88;5060880;28;20193;-74
2023/12/27 08:56:08;;;;;;;12.13;10.00;;;;;;;7.29;100.00;100576.28;5059767;28;20509;-76
2023/12/27 08:58:33;;;;;;;11.90;10.50;;;;;;;7.30;100.00;100579.69;5054505;28;20178;-74
2023/12/27 09:01:00;;;;;;;11.23;9.67;;;;;;;7.34;100.00;100571.00;5047070;28;20228;-74
2023/12/27 09:03:25;;;;;;;10.80;9.33;;;;;;;7.27;100.00;100578.06;5067478;28;20268;-74
2023/12/27 09:05:51;;;;;;;12.47;9.30;;;;;;;7.22;100.00;100569.72;5069866;28;20342;-78
2023/12/27 09:08:16;;;;;;;11.47;9.63;;;;;;;7.47;100.00;100566.28;5069247;28;20173;-73
2023/12/27 09:10:42;;;;;;;12.20;8.63;;;;;;;7.39;100.00;100556.31;5052969;28;20252;-72
2023/12/27 09:13:07;;;;;;;12.00;9.37;;;;;;;7.64;100.00;100564.00;5057734;28;20184;-73
2023/12/27 09:15:32;;;;;;;10.87;8.50;;;;;;;7.90;100.00;100547.72;5060142;28;20176;-73
2023/12/27 09:17:58;;;;;;;10.17;8.90;;;;;;;7.89;100.00;100547.78;5064335;28;20254;-73
2023/12/27 09:20:23;;;;;;;8.97;8.13;;;;;;;8.21;100.00;100553.41;5054297;28;20235;-73
2023/12/27 09:22:49;;;;;;;10.13;8.37;;;;;;;8.32;100.00;100558.16;5071075;28;20169;-74
2023/12/27 09:25:14;;;;;;;8.60;7.80;;;;;;;8.13;100.00;100556.28;5062961;28;20192;-74
2023/12/27 09:27:39;;;;;;;13.53;9.30;;;;;;;8.33;100.00;100552.13;5063201;28;20181;-75
2023/12/27 09:30:06;;;;;;;7.30;6.47;;;;;;;8.26;100.00;100546.41;5050877;28;20186;-73
2023/12/27 09:32:31;;;;;;;18.37;8.67;;;;;;;8.40;100.00;100545.88;5067870;28;20185;-77
2023/12/27 09:34:56;;;;;;;9.33;7.03;;;;;;;8.39;100.00;100544.22;5051747;28;20246;-75
2023/12/27 09:37:22;;;;;;;8.80;7.23;;;;;;;8.63;100.00;100529.63;5052071;28;20193;-76
2023/12/27 09:39:47;;;;;;;9.37;7.00;;;;;;;8.53;100.00;100525.75;5058618;28;20632;-73
2023/12/27 09:42:13;;;;;;;8.20;6.83;;;;;;;8.28;100.00;100508.72;5043774;28;20231;-74
2023/12/27 09:44:42;;;;;;;9.50;7.23;;;;;;;8.06;100.00;100508.72;5070402;28;20203;-75
2023/12/27 09:47:10;;;;;;;11.27;7.83;;;;;;;7.99;100.00;100497.00;5063885;28;20176;-76
2023/12/27 09:49:36;;;;;;;9.80;8.43;;;;;;;8.01;100.00;100519.16;5060466;28;20676;-76
2023/12/27 09:52:02;;;;;;;13.10;8.43;;;;;;;8.14;100.00;100531.50;5054425;28;20288;-76
2023/12/27 09:54:28;;;;;;;11.17;8.23;;;;;;;8.11;100.00;100518.78;5068222;28;20640;-77
2023/12/27 09:56:53;;;;;;;10.30;7.27;;;;;;;8.14;100.00;100516.94;5064686;28;20185;-76
2023/12/27 09:59:27;;;;;;;9.17;7.70;;;;;;;8.13;100.00;100509.34;5063025;28;20216;-75
2023/12/27 10:01:59;;;;;;;8.30;7.03;;;;;;;8.05;100.00;100509.59;5057017;28;20236;-76
2023/12/27 10:04:42;;;;;;;10.67;6.70;;;;;;;7.99;100.00;100522.63;5054055;28;20189;-79
2023/12/27 10:07:08;;;;;;;9.97;6.20;;;;;;;8.09;100.00;100500.91;5059295;28;20191;-76
2023/12/27 10:09:33;;;;;;;8.70;5.80;;;;;;;7.86;100.00;100502.63;5064688;28;20220;-77
2023/12/27 10:11:59;;;;;;;10.57;5.83;;;;;;;8.06;100.00;100521.53;5073929;27;20247;-73
2023/12/27 10:14:26;;;;;;;10.57;5.80;;;;;;;7.89;100.00;100519.59;5068420;28;20184;-73
2023/12/27 10:16:51;;;;;;;5.90;4.97;;;;;;;7.69;100.00;100518.59;5061396;28;20212;-77
2023/12/27 10:19:44;;;;;;;6.70;4.97;;;;;;;7.66;100.00;100512.75;5054226;28;20569;-75
2023/12/27 10:22:11;;;;;;;11.57;5.47;;;;;;;7.72;100.00;100505.66;5038709;28;20520;-75
2023/12/27 10:24:38;;;;;;;10.40;4.80;;;;;;;8.04;100.00;100510.50;5057436;28;20188;-66
2023/12/27 10:27:08;;;;;;;7.63;4.40;;;;;;;8.12;100.00;100495.66;5051881;28;20215;-75
2023/12/27 10:29:34;;;;;;;8.63;4.70;;;;;;;8.30;100.00;100483.88;5054604;28;21464;-75
2023/12/27 10:32:00;;;;;;;8.83;4.37;;;;;;;8.40;100.00;100474.13;5055906;28;20224;-75
2023/12/27 10:34:26;;;;;;;5.53;4.50;;;;;;;8.39;100.00;100472.44;5065063;28;20169;-76
2023/12/27 10:36:53;;;;;;;10.27;5.07;;;;;;;8.12;100.00;100467.47;5069408;28;20184;-75
2023/12/27 10:39:19;;;;;;;7.13;4.13;;;;;;;8.19;100.00;100465.53;5066036;28;20201;-75
2023/12/27 10:41:44;;;;;;;5.93;3.83;;;;;;;8.11;100.00;100464.97;5062460;28;20262;-75
2023/12/27 10:44:11;;;;;;;5.47;3.60;;;;;;;7.87;100.00;100447.09;5052399;28;20244;-74
2023/12/27 10:46:38;;;;;;;7.00;4.17;;;;;;;7.74;100.00;100428.81;5061815;28;20204;-74
2023/12/27 10:49:04;;;;;;;8.70;4.23;;;;;;;7.85;100.00;100424.13;5049840;28;20199;-75
2023/12/27 10:51:31;;;;;;;6.27;3.47;;;;;;;7.97;100.00;100430.47;5042707;28;20268;-74
2023/12/27 10:53:59;;;;;;;8.03;3.83;;;;;;;7.99;100.00;100420.16;5070290;28;20204;-74
2023/12/27 10:56:25;;;;;;;4.83;3.63;;;;;;;8.13;100.00;100412.78;5069826;28;20265;-74
2023/12/27 10:58:52;;;;;;;8.43;4.17;;;;;;;8.35;100.00;100412.75;5067489;28;20254;-74
2023/12/27 11:01:18;;;;;;;7.20;3.53;;;;;;;8.50;100.00;100415.66;5050464;28;20756;-74
2023/12/27 11:03:47;;;;;;;7.63;3.80;;;;;;;8.32;100.00;100412.91;5050210;28;20534;-74
2023/12/27 11:06:14;;;;;;;7.83;3.50;;;;;;;8.22;100.00;100403.91;5050399;28;20185;-74
2023/12/27 11:08:40;;;;;;;7.90;3.90;;;;;;;8.44;100.00;100387.66;5051860;28;20181;-74
2023/12/27 11:11:08;;;;;;;8.13;4.13;;;;;;;8.71;100.00;100389.09;5043122;28;20271;-75
2023/12/27 11:13:35;;;;;;;8.07;3.73;;;;;;;8.70;100.00;100374.59;5058752;28;20263;-75